Time;durP1;ratioP1;P1;durP2;ratioP2;P2;SDS_P1;SDS_P2;PMS_P1;PMS_P2;Temp;Humidity;BMP_temperature;BMP_pressure;BME280_temperature;BME280_humidity;BME280_pressure;Samples;Min_cycle;Max_cycle;Signal;HPM_P1;HPM_P2
2022/03/04 00:01:58;;;;;;;;;;;-3.90;93.50;;;;;;5038765;28;20286;-72
2022/03/04 00:04:24;;;;;;;;;;;-3.80;93.70;;;;;;5048188;28;19915;-73
2022/03/04 00:06:49;;;;;;;;;;;-3.80;94.00;;;;;;5035754;28;19967;-73
2022/03/04 00:09:15;;;;;;;;;;;-3.80;93.90;;;;;;5053305;28;19920;-73
2022/03/04 00:11:41;;;;;;;;;;;-3.70;93.60;;;;;;5053234;28;19983;-73
2022/03/04 00:14:06;;;;;;;;;;;-3.80;93.90;;;;;;5051765;28;19909;-72
2022/03/04 00:16:32;;;;;;;;;;;-3.70;93.60;;;;;;5032610;28;19925;-73
2022/03/04 00:19:07;;;;;;;;;;;-3.80;93.80;;;;;;5034167;28;19948;-73
2022/03/04 00:21:36;;;;;;;;;;;-3.90;93.90;;;;;;5032707;28;19913;-73
2022/03/04 00:24:02;;;;;;;;;;;-4.00;94.40;;;;;;5033954;28;20262;-73
2022/03/04 00:26:27;;;;;;;;;;;-3.90;94.20;;;;;;5033930;28;19963;-72
2022/03/04 00:28:53;;;;;;;;;;;-4.00;93.90;;;;;;5033817;28;19939;-73
2022/03/04 00:31:18;;;;;;;;;;;-3.90;94.30;;;;;;5041304;28;19908;-72
2022/03/04 00:33:44;;;;;;;;;;;-3.90;94.70;;;;;;5037821;28;20396;-73
2022/03/04 00:36:09;;;;;;;;;;;-4.00;94.80;;;;;;5039264;28;19913;-73
2022/03/04 00:38:35;;;;;;;;;;;-4.30;95.80;;;;;;5033671;28;20378;-73
2022/03/04 00:41:00;;;;;;;;;;;-4.40;95.80;;;;;;5033709;28;19909;-73
2022/03/04 00:43:26;;;;;;;;;;;-4.30;95.90;;;;;;5033172;28;20066;-73
2022/03/04 00:45:51;;;;;;;;;;;-4.40;96.00;;;;;;5052894;28;19916;-73
2022/03/04 00:48:17;;;;;;;;;;;-4.30;95.70;;;;;;5052622;28;19908;-73
2022/03/04 00:50:42;;;;;;;;;;;-4.20;95.40;;;;;;5042616;28;20378;-72
2022/03/04 00:53:08;;;;;;;;;;;-4.10;95.00;;;;;;5039839;28;19909;-73
2022/03/04 00:55:37;;;;;;;;;;;-4.20;95.40;;;;;;5033357;28;19996;-70
2022/03/04 00:58:04;;;;;;;;;;;-3.90;94.90;;;;;;5051589;28;19948;-71
2022/03/04 01:00:30;;;;;;;;;;;-3.80;94.20;;;;;;5052415;28;19909;-71
2022/03/04 01:02:55;;;;;;;;;;;-3.90;94.10;;;;;;5052204;28;20004;-71
2022/03/04 01:05:21;;;;;;;;;;;-4.00;94.40;;;;;;5052132;28;19909;-72
2022/03/04 01:07:46;;;;;;;;;;;-4.00;94.70;;;;;;5052256;28;19909;-72
2022/03/04 01:10:12;;;;;;;;;;;-4.00;94.90;;;;;;5052163;28;19962;-72
2022/03/04 01:12:37;;;;;;;;;;;-4.00;94.80;;;;;;5051932;28;19909;-72
2022/03/04 01:15:03;;;;;;;;;;;-4.20;95.30;;;;;;5051877;28;20254;-72
2022/03/04 01:17:28;;;;;;;;;;;-4.20;95.70;;;;;;5051821;28;20003;-72
2022/03/04 01:19:54;;;;;;;;;;;-4.40;96.20;;;;;;5046246;28;19909;-72
2022/03/04 01:22:19;;;;;;;;;;;-4.50;96.10;;;;;;5043631;28;20008;-72
2022/03/04 01:24:45;;;;;;;;;;;-4.70;96.70;;;;;;5032572;28;20253;-72
2022/03/04 01:27:10;;;;;;;;;;;-4.70;97.00;;;;;;5032303;28;19909;-72
2022/03/04 01:29:36;;;;;;;;;;;-4.70;97.10;;;;;;5032691;28;20285;-72
2022/03/04 01:32:02;;;;;;;;;;;-4.60;97.10;;;;;;5032842;28;19948;-72
2022/03/04 01:34:27;;;;;;;;;;;-4.60;97.30;;;;;;5032496;28;20274;-72
2022/03/04 01:36:53;;;;;;;;;;;-4.50;97.30;;;;;;5032639;28;19920;-72
2022/03/04 01:39:18;;;;;;;;;;;-4.50;97.10;;;;;;5032503;28;19916;-72
2022/03/04 01:41:44;;;;;;;;;;;-4.50;97.10;;;;;;5032713;28;19936;-72
2022/03/04 01:44:09;;;;;;;;;;;-4.70;97.50;;;;;;5032438;28;20254;-72
2022/03/04 01:46:35;;;;;;;;;;;-4.80;98.30;;;;;;5032485;28;19967;-72
2022/03/04 01:49:01;;;;;;;;;;;-4.70;98.20;;;;;;5032922;28;19944;-72
2022/03/04 01:51:26;;;;;;;;;;;-4.80;98.50;;;;;;5046572;28;19909;-71
2022/03/04 01:53:52;;;;;;;;;;;-4.80;98.20;;;;;;5036319;28;19916;-72
2022/03/04 01:56:17;;;;;;;;;;;-4.70;98.50;;;;;;5032190;28;20374;-71
2022/03/04 01:58:43;;;;;;;;;;;-4.60;97.80;;;;;;5032128;28;19992;-71
2022/03/04 02:01:09;;;;;;;;;;;-4.60;98.00;;;;;;5032307;28;19909;-71
2022/03/04 02:03:35;;;;;;;;;;;-4.60;97.80;;;;;;5031491;28;19913;-71
2022/03/04 02:06:00;;;;;;;;;;;-4.50;97.60;;;;;;5050762;28;20043;-71
2022/03/04 02:08:26;;;;;;;;;;;-4.60;97.50;;;;;;5051226;28;19944;-71
2022/03/04 02:10:51;;;;;;;;;;;-4.80;98.20;;;;;;5051160;28;19909;-71
2022/03/04 02:13:17;;;;;;;;;;;-4.80;98.60;;;;;;5050971;28;19917;-71
2022/03/04 02:15:43;;;;;;;;;;;-4.80;98.80;;;;;;5051042;28;19995;-71
2022/03/04 02:18:09;;;;;;;;;;;-4.90;99.90;;;;;;5050106;28;19909;-72
2022/03/04 02:20:35;;;;;;;;;;;-5.10;99.90;;;;;;5042094;28;19913;-72
2022/03/04 02:23:01;;;;;;;;;;;-5.20;99.90;;;;;;5044537;28;19923;-72
2022/03/04 02:25:26;;;;;;;;;;;-5.30;99.90;;;;;;5045751;28;19909;-71
2022/03/04 02:27:52;;;;;;;;;;;-5.40;99.90;;;;;;5032589;28;19917;-72
2022/03/04 02:30:17;;;;;;;;;;;-5.40;99.90;;;;;;5032031;28;19909;-71
2022/03/04 02:32:43;;;;;;;;;;;-5.40;99.90;;;;;;5031826;28;20454;-71
2022/03/04 02:35:08;;;;;;;;;;;-5.40;99.90;;;;;;5031788;28;19920;-71
2022/03/04 02:37:35;;;;;;;;;;;-5.50;99.90;;;;;;5031088;28;20008;-71
2022/03/04 02:40:01;;;;;;;;;;;-5.50;99.90;;;;;;5035612;28;19913;-72
2022/03/04 02:42:27;;;;;;;;;;;-5.50;99.90;;;;;;5035765;28;19913;-71
2022/03/04 02:44:52;;;;;;;;;;;-5.50;99.90;;;;;;5035627;28;20022;-72
2022/03/04 02:47:18;;;;;;;;;;;-5.40;99.90;;;;;;5035737;28;20386;-71
2022/03/04 02:49:43;;;;;;;;;;;-5.40;99.90;;;;;;5036753;28;19944;-71
2022/03/04 02:52:09;;;;;;;;;;;-5.40;99.90;;;;;;5050409;28;19918;-71
2022/03/04 02:54:34;;;;;;;;;;;-5.30;99.90;;;;;;5035395;28;19914;-71
2022/03/04 02:57:00;;;;;;;;;;;-5.20;99.90;;;;;;5041443;28;19919;-71
2022/03/04 02:59:25;;;;;;;;;;;-5.20;99.90;;;;;;5040796;28;20035;-71
2022/03/04 03:01:51;;;;;;;;;;;-5.20;99.90;;;;;;5035457;28;19909;-72
2022/03/04 03:04:18;;;;;;;;;;;-5.30;99.90;;;;;;5035256;28;19936;-71
2022/03/04 03:06:44;;;;;;;;;;;-5.40;99.90;;;;;;5035451;28;20183;-71
2022/03/04 03:09:09;;;;;;;;;;;-5.50;99.90;;;;;;5035268;28;19909;-72
2022/03/04 03:11:35;;;;;;;;;;;-5.50;99.90;;;;;;5035354;28;19920;-71
2022/03/04 03:14:00;;;;;;;;;;;-5.60;99.90;;;;;;5035186;28;19916;-72
2022/03/04 03:16:26;;;;;;;;;;;-5.80;99.90;;;;;;5036291;28;19959;-71
2022/03/04 03:18:51;;;;;;;;;;;-5.90;99.90;;;;;;5042866;28;19916;-71
2022/03/04 03:21:17;;;;;;;;;;;-5.70;99.90;;;;;;5034809;28;19909;-71
2022/03/04 03:23:42;;;;;;;;;;;-5.60;99.90;;;;;;5040000;28;19909;-71
2022/03/04 03:26:08;;;;;;;;;;;-5.40;99.90;;;;;;5054264;28;19912;-71
2022/03/04 03:28:34;;;;;;;;;;;-5.30;99.90;;;;;;5054318;28;19916;-71
2022/03/04 03:31:00;;;;;;;;;;;-5.30;99.90;;;;;;5054731;28;19908;-71
2022/03/04 03:33:25;;;;;;;;;;;-5.50;99.90;;;;;;5053284;28;20370;-71
2022/03/04 03:35:54;;;;;;;;;;;-5.40;99.90;;;;;;5049899;28;20004;-71
2022/03/04 03:38:23;;;;;;;;;;;-5.60;99.90;;;;;;5042067;28;19945;-72
2022/03/04 03:40:49;;;;;;;;;;;-5.80;99.90;;;;;;5039560;28;19909;-71
2022/03/04 03:43:14;;;;;;;;;;;-5.90;99.90;;;;;;5049552;28;19909;-71
2022/03/04 03:45:40;;;;;;;;;;;-5.80;99.90;;;;;;5034762;28;20366;-71
2022/03/04 03:48:05;;;;;;;;;;;-5.80;99.90;;;;;;5033486;28;19913;-71
2022/03/04 03:50:31;;;;;;;;;;;-5.70;99.90;;;;;;5032459;28;19978;-71
2022/03/04 03:52:56;;;;;;;;;;;-5.60;99.90;;;;;;5034526;28;19994;-71
2022/03/04 03:55:22;;;;;;;;;;;-5.40;99.90;;;;;;5036834;28;19909;-71
2022/03/04 03:57:47;;;;;;;;;;;-5.60;99.90;;;;;;5038030;28;19916;-71
2022/03/04 04:00:13;;;;;;;;;;;-5.70;99.90;;;;;;5034653;28;19909;-71
2022/03/04 04:02:39;;;;;;;;;;;-5.70;99.90;;;;;;5040307;28;19912;-72
2022/03/04 04:05:06;;;;;;;;;;;-5.80;99.90;;;;;;5044821;28;19913;-71
2022/03/04 04:07:31;;;;;;;;;;;-5.90;99.90;;;;;;5034233;28;19956;-71
2022/03/04 04:09:56;;;;;;;;;;;-5.80;99.90;;;;;;5034344;28;19917;-71
2022/03/04 04:12:22;;;;;;;;;;;-5.70;99.90;;;;;;5034260;28;19959;-71
2022/03/04 04:14:48;;;;;;;;;;;-5.60;99.90;;;;;;5034028;28;19913;-71
2022/03/04 04:17:13;;;;;;;;;;;-5.70;99.90;;;;;;5034105;28;19924;-71
2022/03/04 04:19:38;;;;;;;;;;;-5.60;99.90;;;;;;5034160;28;20007;-71
2022/03/04 04:22:04;;;;;;;;;;;-5.50;99.90;;;;;;5034197;28;19909;-71
2022/03/04 04:24:29;;;;;;;;;;;-5.50;99.90;;;;;;5034012;28;19913;-71
2022/03/04 04:26:55;;;;;;;;;;;-5.70;99.90;;;;;;5034024;28;20293;-71
2022/03/04 04:29:20;;;;;;;;;;;-5.80;99.90;;;;;;5053200;28;20023;-72
2022/03/04 04:31:46;;;;;;;;;;;-5.90;99.90;;;;;;5047969;28;19909;-71
2022/03/04 04:34:11;;;;;;;;;;;-5.90;99.90;;;;;;5049345;28;19908;-71
2022/03/04 04:36:37;;;;;;;;;;;-5.90;99.90;;;;;;5039188;28;19975;-71
2022/03/04 04:39:03;;;;;;;;;;;-6.00;99.90;;;;;;5032658;28;19913;-71
2022/03/04 04:41:29;;;;;;;;;;;-6.10;99.90;;;;;;5033647;28;19909;-71
2022/03/04 04:43:55;;;;;;;;;;;-6.10;99.90;;;;;;5033515;28;19913;-71
2022/03/04 04:46:20;;;;;;;;;;;-6.00;99.90;;;;;;5033742;28;19916;-71
2022/03/04 04:48:46;;;;;;;;;;;-6.00;99.90;;;;;;5033461;28;19963;-71
2022/03/04 04:51:11;;;;;;;;;;;-6.20;99.90;;;;;;5038434;28;19909;-71
2022/03/04 04:53:38;;;;;;;;;;;-6.20;99.90;;;;;;5050697;28;20420;-71
2022/03/04 04:56:04;;;;;;;;;;;-6.30;99.90;;;;;;5033516;28;19967;-71
2022/03/04 04:58:29;;;;;;;;;;;-6.20;99.90;;;;;;5033405;28;20275;-71
2022/03/04 05:00:55;;;;;;;;;;;-6.10;99.90;;;;;;5032706;28;20393;-71
2022/03/04 05:03:24;;;;;;;;;;;-6.10;99.90;;;;;;5033154;28;19995;-71
2022/03/04 05:05:50;;;;;;;;;;;-6.10;99.90;;;;;;5031920;28;19946;-71
2022/03/04 05:08:16;;;;;;;;;;;-6.10;99.90;;;;;;5032969;28;19909;-71
2022/03/04 05:10:42;;;;;;;;;;;-6.10;99.90;;;;;;5033181;28;19909;-71
2022/03/04 05:13:07;;;;;;;;;;;-6.10;99.90;;;;;;5048430;28;19913;-71
2022/03/04 05:15:33;;;;;;;;;;;-6.00;99.90;;;;;;5052248;28;20003;-71
2022/03/04 05:17:58;;;;;;;;;;;-6.10;99.90;;;;;;5052179;28;20003;-71
2022/03/04 05:20:24;;;;;;;;;;;-6.20;99.90;;;;;;5049767;28;20340;-71
2022/03/04 05:22:49;;;;;;;;;;;-6.30;99.90;;;;;;5035700;28;19909;-71
2022/03/04 05:25:15;;;;;;;;;;;-6.40;99.90;;;;;;5032777;28;20004;-71
2022/03/04 05:27:40;;;;;;;;;;;-6.40;99.90;;;;;;5032836;28;20329;-71
2022/03/04 05:30:06;;;;;;;;;;;-6.40;99.90;;;;;;5031541;28;19909;-71
2022/03/04 05:32:32;;;;;;;;;;;-6.20;99.90;;;;;;5033135;28;19967;-71
2022/03/04 05:34:57;;;;;;;;;;;-6.10;99.90;;;;;;5032755;28;19909;-71
2022/03/04 05:37:23;;;;;;;;;;;-6.20;99.90;;;;;;5032813;28;20624;-71
2022/03/04 05:39:48;;;;;;;;;;;-6.20;99.90;;;;;;5032981;28;19942;-71
2022/03/04 05:42:14;;;;;;;;;;;-6.30;99.90;;;;;;5032523;28;19939;-71
2022/03/04 05:44:40;;;;;;;;;;;-6.30;99.90;;;;;;5051594;28;19916;-71
2022/03/04 05:47:05;;;;;;;;;;;-6.30;99.90;;;;;;5051788;28;19935;-71
2022/03/04 05:49:31;;;;;;;;;;;-6.40;99.90;;;;;;5050481;28;19923;-71
2022/03/04 05:51:56;;;;;;;;;;;-6.40;99.90;;;;;;5053524;28;20039;-71
2022/03/04 05:54:22;;;;;;;;;;;-6.50;99.90;;;;;;5033365;28;19962;-71
2022/03/04 05:56:48;;;;;;;;;;;-6.70;99.90;;;;;;5032240;28;20370;-72
2022/03/04 05:59:13;;;;;;;;;;;-6.40;99.90;;;;;;5036253;28;19915;-72
2022/03/04 06:01:39;;;;;;;;;;;-6.20;99.90;;;;;;5041302;28;19909;-71
2022/03/04 06:04:04;;;;;;;;;;;-6.10;99.90;;;;;;5036960;28;19909;-72
2022/03/04 06:06:30;;;;;;;;;;;-6.10;99.90;;;;;;5039713;28;19910;-71
2022/03/04 06:08:55;;;;;;;;;;;-6.10;99.90;;;;;;5033814;28;20003;-72
2022/03/04 06:11:21;;;;;;;;;;;-6.00;99.90;;;;;;5041748;28;19963;-71
2022/03/04 06:13:46;;;;;;;;;;;-5.90;99.90;;;;;;5050815;28;19909;-71
2022/03/04 06:16:12;;;;;;;;;;;-5.80;99.90;;;;;;5050792;28;19923;-72
2022/03/04 06:18:37;;;;;;;;;;;-6.00;99.90;;;;;;5048070;28;19909;-72
2022/03/04 06:21:03;;;;;;;;;;;-6.10;99.90;;;;;;5031704;28;19913;-72
2022/03/04 06:23:28;;;;;;;;;;;-6.10;99.90;;;;;;5046713;28;20427;-71
2022/03/04 06:25:55;;;;;;;;;;;-6.20;99.90;;;;;;5035943;28;19940;-71
2022/03/04 06:28:21;;;;;;;;;;;-6.00;99.90;;;;;;5033817;28;19916;-72
2022/03/04 06:30:46;;;;;;;;;;;-6.00;99.90;;;;;;5042481;28;20304;-72
2022/03/04 06:33:33;;;;;;;;;;;-6.20;99.90;;;;;;5039916;28;19967;-71
2022/03/04 06:36:01;;;;;;;;;;;-6.30;99.90;;;;;;5032433;28;19944;-71
2022/03/04 06:38:27;;;;;;;;;;;-6.30;99.90;;;;;;5031619;28;19909;-71
2022/03/04 06:40:52;;;;;;;;;;;-6.20;99.90;;;;;;5034269;28;19936;-71
2022/03/04 06:43:18;;;;;;;;;;;-6.00;99.90;;;;;;5050431;28;19909;-71
2022/03/04 06:45:45;;;;;;;;;;;-5.90;99.90;;;;;;5050904;28;19916;-71
2022/03/04 06:48:11;;;;;;;;;;;-5.80;99.90;;;;;;5035008;28;19921;-72
2022/03/04 06:50:36;;;;;;;;;;;-5.60;99.90;;;;;;5038632;28;20362;-71
2022/03/04 06:53:03;;;;;;;;;;;-5.60;99.90;;;;;;5041283;28;19913;-71
2022/03/04 06:55:28;;;;;;;;;;;-5.60;99.90;;;;;;5039216;28;19910;-71
2022/03/04 06:57:55;;;;;;;;;;;-5.70;99.90;;;;;;5036579;28;19971;-71
2022/03/04 07:00:21;;;;;;;;;;;-5.70;99.90;;;;;;5043523;28;20003;-71
2022/03/04 07:02:47;;;;;;;;;;;-5.50;99.90;;;;;;5040819;28;20003;-72
2022/03/04 07:05:14;;;;;;;;;;;-5.50;99.90;;;;;;5040051;28;20404;-72
2022/03/04 07:07:39;;;;;;;;;;;-5.20;99.90;;;;;;5037880;28;20285;-72
2022/03/04 07:10:05;;;;;;;;;;;-5.00;99.90;;;;;;5038501;28;19913;-72
2022/03/04 07:12:31;;;;;;;;;;;-5.00;99.90;;;;;;5049781;28;19909;-72
2022/03/04 07:14:57;;;;;;;;;;;-5.00;99.90;;;;;;5048404;28;20345;-72
2022/03/04 07:17:22;;;;;;;;;;;-4.80;99.90;;;;;;5049257;28;20004;-72
2022/03/04 07:19:48;;;;;;;;;;;-4.50;99.90;;;;;;5034562;28;20263;-73
2022/03/04 07:22:13;;;;;;;;;;;-4.50;99.90;;;;;;5046985;28;19916;-72
2022/03/04 07:24:39;;;;;;;;;;;-4.40;99.90;;;;;;5033214;28;20030;-72
2022/03/04 07:27:04;;;;;;;;;;;-4.30;99.90;;;;;;5034657;28;20429;-72
2022/03/04 07:29:30;;;;;;;;;;;-4.10;99.90;;;;;;5035098;28;20460;-72
2022/03/04 07:31:56;;;;;;;;;;;-3.80;99.90;;;;;;5033926;28;20223;-72
2022/03/04 07:34:24;;;;;;;;;;;-3.80;99.90;;;;;;5034223;28;19913;-72
2022/03/04 07:36:51;;;;;;;;;;;-3.50;99.90;;;;;;5053428;28;20378;-72
2022/03/04 07:39:16;;;;;;;;;;;-3.30;99.90;;;;;;5053348;28;19909;-70
2022/03/04 07:41:42;;;;;;;;;;;-3.20;99.90;;;;;;5053470;28;20012;-71
2022/03/04 07:44:07;;;;;;;;;;;-3.10;99.90;;;;;;5053207;28;19915;-71
2022/03/04 07:46:33;;;;;;;;;;;-2.90;99.90;;;;;;5053043;28;19909;-70
2022/03/04 07:48:59;;;;;;;;;;;-2.70;99.90;;;;;;5048964;28;20007;-71
2022/03/04 07:51:25;;;;;;;;;;;-2.60;99.90;;;;;;5037326;28;19945;-72
2022/03/04 07:53:50;;;;;;;;;;;-2.50;99.90;;;;;;5042664;28;20422;-71
2022/03/04 07:56:16;;;;;;;;;;;-2.30;99.90;;;;;;5039580;28;19913;-71
2022/03/04 07:58:41;;;;;;;;;;;-2.20;99.90;;;;;;5058905;28;19916;-71
2022/03/04 08:01:08;;;;;;;;;;;-1.90;99.90;;;;;;5048781;28;19923;-71
2022/03/04 08:03:34;;;;;;;;;;;-1.60;99.20;;;;;;5040703;28;19909;-71
2022/03/04 08:06:00;;;;;;;;;;;-1.30;96.50;;;;;;5037079;28;19916;-71
2022/03/04 08:08:25;;;;;;;;;;;-1.10;95.60;;;;;;5038658;28;19992;-71
2022/03/04 08:10:51;;;;;;;;;;;-1.00;94.90;;;;;;5049272;28;19963;-71
2022/03/04 08:13:16;;;;;;;;;;;-0.90;95.10;;;;;;5036812;28;19915;-72
2022/03/04 08:15:42;;;;;;;;;;;-0.80;95.00;;;;;;5036378;28;19917;-71
2022/03/04 08:18:07;;;;;;;;;;;-0.60;94.00;;;;;;5035007;28;19917;-72
2022/03/04 08:20:33;;;;;;;;;;;-0.40;94.20;;;;;;5046213;28;20354;-72
2022/03/04 08:22:59;;;;;;;;;;;0.10;93.90;;;;;;5038433;28;19909;-72
2022/03/04 08:25:24;;;;;;;;;;;2.50;91.60;;;;;;5035405;28;19951;-72
2022/03/04 08:27:50;;;;;;;;;;;4.80;83.00;;;;;;5035714;28;19909;-72
2022/03/04 08:30:15;;;;;;;;;;;6.00;75.90;;;;;;5035172;28;19913;-72
2022/03/04 08:32:41;;;;;;;;;;;7.20;71.10;;;;;;5035396;28;19975;-73
2022/03/04 08:35:08;;;;;;;;;;;8.00;66.20;;;;;;5035331;28;19932;-73
2022/03/04 08:37:34;;;;;;;;;;;8.40;63.80;;;;;;5035544;28;19920;-72
2022/03/04 08:39:59;;;;;;;;;;;8.20;64.80;;;;;;5036414;28;20273;-72
2022/03/04 08:42:25;;;;;;;;;;;8.90;61.90;;;;;;5035781;28;19959;-73
2022/03/04 08:44:52;;;;;;;;;;;9.60;59.90;;;;;;5036149;28;19916;-72
2022/03/04 08:47:18;;;;;;;;;;;9.00;59.00;;;;;;5035538;28;19915;-72
2022/03/04 08:49:43;;;;;;;;;;;8.90;60.50;;;;;;5041168;28;19910;-72
2022/03/04 08:52:09;;;;;;;;;;;8.70;59.30;;;;;;5041258;28;19910;-72
2022/03/04 08:54:34;;;;;;;;;;;8.60;59.20;;;;;;5034654;28;20012;-72
2022/03/04 08:57:00;;;;;;;;;;;9.00;57.30;;;;;;5048988;28;21046;-73
2022/03/04 08:59:25;;;;;;;;;;;8.50;57.50;;;;;;5040356;28;19954;-72
2022/03/04 09:01:51;;;;;;;;;;;9.00;57.90;;;;;;5041915;28;20370;-72
2022/03/04 09:04:17;;;;;;;;;;;9.10;56.80;;;;;;5037499;28;19915;-73
2022/03/04 09:06:43;;;;;;;;;;;10.90;55.20;;;;;;5036084;28;19909;-73
2022/03/04 09:09:09;;;;;;;;;;;11.40;53.30;;;;;;5038718;28;19909;-73
2022/03/04 09:11:34;;;;;;;;;;;12.00;52.10;;;;;;5047211;28;19913;-73
2022/03/04 09:14:01;;;;;;;;;;;12.10;51.40;;;;;;5034739;28;19944;-73
2022/03/04 09:16:28;;;;;;;;;;;11.60;50.30;;;;;;5032307;28;19924;-72
2022/03/04 09:18:54;;;;;;;;;;;10.30;50.30;;;;;;5032287;28;19916;-73
2022/03/04 09:21:19;;;;;;;;;;;11.90;49.60;;;;;;5032217;28;19913;-73
2022/03/04 09:23:45;;;;;;;;;;;10.70;48.10;;;;;;5033791;28;19920;-73
2022/03/04 09:26:10;;;;;;;;;;;11.50;50.00;;;;;;5035216;28;19948;-73
2022/03/04 09:28:36;;;;;;;;;;;12.40;48.00;;;;;;5034563;28;19909;-73
2022/03/04 09:31:01;;;;;;;;;;;12.20;45.70;;;;;;5034897;28;20401;-72
2022/03/04 09:33:27;;;;;;;;;;;12.80;47.30;;;;;;5034899;28;19913;-73
2022/03/04 09:35:52;;;;;;;;;;;13.90;45.60;;;;;;5034738;28;19909;-75
2022/03/04 09:38:18;;;;;;;;;;;14.90;44.60;;;;;;5034339;28;20011;-73
2022/03/04 09:40:44;;;;;;;;;;;13.00;42.00;;;;;;5043608;28;19944;-73
2022/03/04 09:43:09;;;;;;;;;;;13.10;45.00;;;;;;5042231;28;19909;-73
2022/03/04 09:45:35;;;;;;;;;;;13.90;42.90;;;;;;5035235;28;19984;-73
2022/03/04 09:48:02;;;;;;;;;;;14.30;43.80;;;;;;5034443;28;19909;-73
2022/03/04 09:50:28;;;;;;;;;;;15.20;42.70;;;;;;5034354;28;19936;-74
2022/03/04 09:52:53;;;;;;;;;;;14.70;43.10;;;;;;5037148;28;19917;-74
2022/03/04 09:55:19;;;;;;;;;;;14.60;39.90;;;;;;5041749;28;19908;-74
2022/03/04 09:57:44;;;;;;;;;;;15.70;40.80;;;;;;5039568;28;19913;-73
2022/03/04 10:00:11;;;;;;;;;;;15.90;40.80;;;;;;5046428;28;19961;-73
2022/03/04 10:02:37;;;;;;;;;;;16.80;40.50;;;;;;5035762;28;20484;-74
2022/03/04 10:05:02;;;;;;;;;;;16.70;39.30;;;;;;5033587;28;20004;-75
2022/03/04 10:07:36;;;;;;;;;;;16.90;40.20;;;;;;5045913;28;19916;-73
2022/03/04 10:10:02;;;;;;;;;;;15.40;38.20;;;;;;5045652;28;19919;-74
2022/03/04 10:12:28;;;;;;;;;;;16.00;39.40;;;;;;5054223;28;19983;-74
2022/03/04 10:14:57;;;;;;;;;;;16.30;39.30;;;;;;5055560;28;20259;-74
2022/03/04 10:17:23;;;;;;;;;;;15.50;39.90;;;;;;5055063;28;19943;-74
2022/03/04 10:19:53;;;;;;;;;;;16.00;40.00;;;;;;5046674;28;20251;-74
2022/03/04 10:22:18;;;;;;;;;;;16.10;39.90;;;;;;5038695;28;20020;-74
2022/03/04 10:24:43;;;;;;;;;;;15.90;39.60;;;;;;5038219;28;19956;-74
2022/03/04 10:27:10;;;;;;;;;;;15.70;38.70;;;;;;5033297;28;20377;-74
2022/03/04 10:29:35;;;;;;;;;;;15.60;40.00;;;;;;5032088;28;19913;-73
2022/03/04 10:32:07;;;;;;;;;;;16.80;38.00;;;;;;5032341;28;19963;-74
2022/03/04 10:34:47;;;;;;;;;;;16.40;37.10;;;;;;5045011;28;19908;-73
2022/03/04 10:37:13;;;;;;;;;;;17.20;37.30;;;;;;5050275;28;20358;-72
2022/03/04 10:39:58;;;;;;;;;;;16.40;36.10;;;;;;5050280;28;19908;-73
2022/03/04 10:42:52;;;;;;;;;;;16.80;37.00;;;;;;5050305;28;19988;-73
2022/03/04 10:45:20;;;;;;;;;;;17.80;34.90;;;;;;5038380;28;20008;-74
2022/03/04 10:47:49;;;;;;;;;;;17.90;34.70;;;;;;5032069;28;20283;-74
2022/03/04 10:50:16;;;;;;;;;;;17.50;36.30;;;;;;5036813;28;20331;-75
2022/03/04 10:52:49;;;;;;;;;;;17.80;35.50;;;;;;5032965;28;19916;-75
2022/03/04 10:55:44;;;;;;;;;;;18.20;34.70;;;;;;5050003;28;20035;-75
2022/03/04 10:58:27;;;;;;;;;;;18.00;33.70;;;;;;5050050;28;19941;-75
2022/03/04 11:00:54;;;;;;;;;;;16.90;36.20;;;;;;5048851;28;19917;-75
2022/03/04 11:03:33;;;;;;;;;;;17.60;35.40;;;;;;5048768;28;19916;-75
2022/03/04 11:06:03;;;;;;;;;;;18.70;34.70;;;;;;5038995;28;20488;-73
2022/03/04 11:08:28;;;;;;;;;;;17.80;32.30;;;;;;5040267;28;20007;-74
2022/03/04 11:10:55;;;;;;;;;;;18.10;34.40;;;;;;5035536;28;19996;-73
2022/03/04 11:13:21;;;;;;;;;;;17.70;32.70;;;;;;5051541;28;20394;-74
2022/03/04 11:15:47;;;;;;;;;;;16.10;33.00;;;;;;5053999;28;20050;-74
2022/03/04 11:18:14;;;;;;;;;;;17.40;35.20;;;;;;5054020;28;19959;-75
2022/03/04 11:20:42;;;;;;;;;;;18.30;34.10;;;;;;5049725;28;20010;-74
2022/03/04 11:23:08;;;;;;;;;;;19.30;33.30;;;;;;5038712;28;20377;-73
2022/03/04 11:25:35;;;;;;;;;;;19.30;32.80;;;;;;5034468;28;19909;-74
2022/03/04 11:28:07;;;;;;;;;;;19.10;33.30;;;;;;5034306;28;19916;-74
2022/03/04 11:30:35;;;;;;;;;;;18.20;31.70;;;;;;5042498;28;19909;-74
2022/03/04 11:33:00;;;;;;;;;;;18.30;31.50;;;;;;5053520;28;19955;-74
2022/03/04 11:35:41;;;;;;;;;;;18.70;33.20;;;;;;5053389;28;19917;-74
2022/03/04 11:38:07;;;;;;;;;;;18.40;33.00;;;;;;5036335;28;19913;-74
2022/03/04 11:40:38;;;;;;;;;;;17.60;31.20;;;;;;5033073;28;19909;-73
2022/03/04 11:43:06;;;;;;;;;;;18.70;30.80;;;;;;5037705;28;20012;-75
2022/03/04 11:45:32;;;;;;;;;;;18.20;31.20;;;;;;5036806;28;19944;-74
2022/03/04 11:48:08;;;;;;;;;;;18.60;31.90;;;;;;5035186;28;20336;-75
2022/03/04 11:50:46;;;;;;;;;;;17.90;32.90;;;;;;5035704;28;19909;-74
2022/03/04 11:53:22;;;;;;;;;;;17.20;30.30;;;;;;5044089;28;19944;-74
2022/03/04 11:56:07;;;;;;;;;;;16.50;31.60;;;;;;5036234;28;19910;-75
2022/03/04 11:59:08;;;;;;;;;;;13.80;35.10;;;;;;5043045;28;19920;-74
2022/03/04 12:01:34;;;;;;;;;;;10.70;40.00;;;;;;5055184;28;19909;-75
2022/03/04 12:04:10;;;;;;;;;;;9.70;46.10;;;;;;5053151;28;19932;-74
2022/03/04 12:06:36;;;;;;;;;;;8.60;46.50;;;;;;5053147;28;19975;-74
2022/03/04 12:09:23;;;;;;;;;;;7.50;47.10;;;;;;5051666;28;20251;-74
2022/03/04 12:12:28;;;;;;;;;;;7.60;46.60;;;;;;5052942;28;19913;-74
2022/03/04 12:15:11;;;;;;;;;;;7.50;49.30;;;;;;5054221;28;20243;-74
2022/03/04 12:17:52;;;;;;;;;;;7.10;47.70;;;;;;5051342;28;19995;-74
2022/03/04 12:20:31;;;;;;;;;;;7.30;50.20;;;;;;5039666;28;20011;-75
2022/03/04 12:22:57;;;;;;;;;;;7.30;51.60;;;;;;5039313;28;20011;-74
2022/03/04 12:25:42;;;;;;;;;;;7.30;50.70;;;;;;5037544;28;20011;-75
2022/03/04 12:28:15;;;;;;;;;;;7.10;50.20;;;;;;5033337;28;19963;-74
2022/03/04 12:30:41;;;;;;;;;;;7.00;50.70;;;;;;5033956;28;19909;-74
2022/03/04 12:33:07;;;;;;;;;;;7.00;48.90;;;;;;5032543;28;20004;-74
2022/03/04 12:35:33;;;;;;;;;;;6.80;48.90;;;;;;5034038;28;19910;-75
2022/03/04 12:38:00;;;;;;;;;;;6.80;49.50;;;;;;5033513;28;19914;-75
2022/03/04 12:40:26;;;;;;;;;;;6.80;49.10;;;;;;5033522;28;19924;-74
2022/03/04 12:42:53;;;;;;;;;;;6.80;50.80;;;;;;5033809;28;19909;-74
2022/03/04 12:45:18;;;;;;;;;;;6.80;50.90;;;;;;5033418;28;20310;-73
2022/03/04 12:47:44;;;;;;;;;;;6.60;50.40;;;;;;5033508;28;19909;-73
2022/03/04 12:50:09;;;;;;;;;;;6.60;50.40;;;;;;5041569;28;19909;-73
2022/03/04 12:52:35;;;;;;;;;;;6.70;51.70;;;;;;5049368;28;20413;-74
2022/03/04 12:55:04;;;;;;;;;;;6.70;49.70;;;;;;5033734;28;19917;-75
2022/03/04 12:57:29;;;;;;;;;;;6.90;51.80;;;;;;5045292;28;19913;-73
2022/03/04 12:59:55;;;;;;;;;;;6.80;48.20;;;;;;5040305;28;20397;-73
2022/03/04 13:02:21;;;;;;;;;;;6.60;49.40;;;;;;5040155;28;19913;-73
2022/03/04 13:04:57;;;;;;;;;;;6.70;48.80;;;;;;5032911;28;19909;-73
2022/03/04 13:07:22;;;;;;;;;;;6.70;48.90;;;;;;5032627;28;19909;-72
2022/03/04 13:09:48;;;;;;;;;;;6.70;47.40;;;;;;5032804;28;19905;-73
2022/03/04 13:12:19;;;;;;;;;;;6.70;49.60;;;;;;5031642;28;19913;-72
2022/03/04 13:14:45;;;;;;;;;;;6.60;47.40;;;;;;5032828;28;19938;-73
2022/03/04 13:17:11;;;;;;;;;;;6.60;46.70;;;;;;5032612;28;20328;-73
2022/03/04 13:19:39;;;;;;;;;;;6.40;46.50;;;;;;5030985;28;19963;-74
2022/03/04 13:22:09;;;;;;;;;;;6.50;48.10;;;;;;5033925;28;19919;-73
2022/03/04 13:24:36;;;;;;;;;;;6.50;48.40;;;;;;5038034;28;19909;-74
2022/03/04 13:27:06;;;;;;;;;;;6.70;48.30;;;;;;5033114;28;19909;-73
2022/03/04 13:29:35;;;;;;;;;;;6.70;46.20;;;;;;5032660;28;20008;-73
2022/03/04 13:32:11;;;;;;;;;;;6.50;45.40;;;;;;5031519;28;19932;-73
2022/03/04 13:34:37;;;;;;;;;;;6.50;46.70;;;;;;5045271;28;19913;-72
2022/03/04 13:37:21;;;;;;;;;;;6.60;47.20;;;;;;5051828;28;20270;-72
2022/03/04 13:39:57;;;;;;;;;;;6.60;47.40;;;;;;5032608;28;20011;-73
2022/03/04 13:42:24;;;;;;;;;;;6.70;45.20;;;;;;5032573;28;19909;-73
2022/03/04 13:44:51;;;;;;;;;;;6.80;46.20;;;;;;5032102;28;20354;-75
2022/03/04 13:47:27;;;;;;;;;;;6.90;44.50;;;;;;5032775;28;19952;-73
2022/03/04 13:49:52;;;;;;;;;;;6.70;43.90;;;;;;5034003;28;20071;-73
2022/03/04 13:52:17;;;;;;;;;;;6.80;43.30;;;;;;5041085;28;20388;-75
2022/03/04 13:54:49;;;;;;;;;;;6.60;46.50;;;;;;5040661;28;19955;-73
2022/03/04 13:57:33;;;;;;;;;;;6.60;46.00;;;;;;5038471;28;19935;-73
2022/03/04 14:00:09;;;;;;;;;;;6.70;46.50;;;;;;5045046;28;20371;-73
2022/03/04 14:02:39;;;;;;;;;;;6.70;44.80;;;;;;5034656;28;19909;-73
2022/03/04 14:05:05;;;;;;;;;;;6.80;46.80;;;;;;5032473;28;20328;-73
2022/03/04 14:07:40;;;;;;;;;;;6.60;47.90;;;;;;5051075;28;19996;-73
2022/03/04 14:10:10;;;;;;;;;;;6.70;47.80;;;;;;5043493;28;19979;-73
2022/03/04 14:12:35;;;;;;;;;;;6.80;46.40;;;;;;5032817;28;20378;-73
2022/03/04 14:15:01;;;;;;;;;;;6.80;45.90;;;;;;5031946;28;19909;-73
2022/03/04 14:17:26;;;;;;;;;;;6.90;46.40;;;;;;5031986;28;19924;-74
2022/03/04 14:19:52;;;;;;;;;;;6.90;48.90;;;;;;5033160;28;19910;-73